createdAt,value
2023-02-14T00:00:02.334Z,5.15
2023-02-14T00:01:02.319Z,5.17
2023-02-14T00:02:02.282Z,5.12
2023-02-14T00:03:02.352Z,5.07
2023-02-14T00:04:02.229Z,5.15
2023-02-14T00:05:02.214Z,5.12
2023-02-14T00:06:02.174Z,5.02
2023-02-14T00:07:02.160Z,5.03
2023-02-14T00:08:02.129Z,5.04
2023-02-14T00:09:02.099Z,5.12
2023-02-14T00:10:02.106Z,5.15
2023-02-14T00:11:02.043Z,5.00
2023-02-14T00:12:02.041Z,4.96
2023-02-14T00:13:02.006Z,4.82
2023-02-14T00:14:02.017Z,4.72
2023-02-14T00:15:01.938Z,4.65
2023-02-14T00:16:01.996Z,4.58
2023-02-14T00:17:01.889Z,4.58
2023-02-14T00:18:01.851Z,4.59
2023-02-14T00:19:01.832Z,4.55
2023-02-14T00:20:01.817Z,4.58
2023-02-14T00:21:01.769Z,4.60
2023-02-14T00:22:01.747Z,4.69
2023-02-14T00:23:01.712Z,4.63
2023-02-14T00:24:01.691Z,4.66
2023-02-14T00:25:01.665Z,4.62
2023-02-14T00:26:01.637Z,4.65
2023-02-14T00:27:01.607Z,4.63
2023-02-14T00:28:01.612Z,4.69
2023-02-14T00:29:01.568Z,4.58
2023-02-14T00:30:01.543Z,4.60
2023-02-14T00:31:01.968Z,4.70
2023-02-14T00:32:01.553Z,4.69
2023-02-14T00:33:01.451Z,4.66
2023-02-14T00:34:01.426Z,4.69
2023-02-14T00:35:01.396Z,4.73
2023-02-14T00:36:01.364Z,4.77
2023-02-14T00:37:01.351Z,4.70
2023-02-14T00:38:01.313Z,4.73
2023-02-14T00:39:01.280Z,4.82
2023-02-14T00:40:01.260Z,4.82
2023-02-14T00:41:01.467Z,4.85
2023-02-14T00:42:01.203Z,4.78
2023-02-14T00:43:01.178Z,4.88
2023-02-14T00:44:01.174Z,4.86
2023-02-14T00:45:01.128Z,4.80
2023-02-14T00:46:01.120Z,4.80
2023-02-14T00:47:01.069Z,4.88
2023-02-14T00:48:01.038Z,4.80
2023-02-14T00:49:01.012Z,4.94
2023-02-14T00:50:00.985Z,4.84
2023-02-14T00:51:01.164Z,4.82
2023-02-14T00:52:00.928Z,4.85
2023-02-14T00:53:00.901Z,4.80
2023-02-14T00:54:00.876Z,4.94
2023-02-14T00:55:00.848Z,4.80
2023-02-14T00:56:00.826Z,4.80
2023-02-14T00:57:00.797Z,4.86
2023-02-14T00:58:00.781Z,4.84
2023-02-14T00:59:00.743Z,4.92
2023-02-14T01:00:00.743Z,4.82
2023-02-14T01:01:01.021Z,4.75
2023-02-14T01:02:00.659Z,4.78
2023-02-14T01:03:00.634Z,4.72
2023-02-14T01:04:00.605Z,4.80
2023-02-14T01:05:00.579Z,4.69
2023-02-14T01:06:00.555Z,4.63
2023-02-14T01:07:00.525Z,4.72
2023-02-14T01:08:00.523Z,4.67
2023-02-14T01:09:00.471Z,4.70
2023-02-14T01:10:00.450Z,4.60
2023-02-14T01:11:00.984Z,4.60
2023-02-14T01:12:00.392Z,4.54
2023-02-14T01:13:00.358Z,4.54
2023-02-14T01:14:00.339Z,4.48
2023-02-14T01:15:00.311Z,4.45
2023-02-14T01:16:00.395Z,4.54
2023-02-14T01:17:00.251Z,4.51
2023-02-14T01:18:00.226Z,4.48
2023-02-14T01:19:00.234Z,4.44
2023-02-14T01:20:00.173Z,4.36
2023-02-14T01:21:00.405Z,4.32
2023-02-14T01:22:00.149Z,4.29
2023-02-14T01:23:00.101Z,4.29
2023-02-14T01:24:00.060Z,4.30
2023-02-14T01:25:00.061Z,4.29
2023-02-14T01:26:00.012Z,4.24
2023-02-14T01:27:00.060Z,4.33
2023-02-14T01:27:59.959Z,4.36
2023-02-14T01:28:59.932Z,4.30
2023-02-14T01:29:59.983Z,4.30
2023-02-14T01:31:00.234Z,4.34
2023-02-14T01:31:59.927Z,4.24
2023-02-14T01:32:59.828Z,4.29
2023-02-14T01:33:59.813Z,4.26
2023-02-14T01:34:59.763Z,4.27
2023-02-14T01:35:59.738Z,4.30
2023-02-14T01:36:59.709Z,4.32
2023-02-14T01:37:59.680Z,4.30
2023-02-14T01:38:59.655Z,4.29
2023-02-14T01:39:59.634Z,4.26
2023-02-14T01:40:59.978Z,4.26
2023-02-14T01:41:59.575Z,4.29
2023-02-14T01:42:59.547Z,4.24
2023-02-14T01:43:59.528Z,4.20
2023-02-14T01:44:59.489Z,4.26
2023-02-14T01:45:59.526Z,4.27
2023-02-14T01:46:59.437Z,4.20
2023-02-14T01:47:59.443Z,4.16
2023-02-14T01:48:59.389Z,4.04
2023-02-14T01:49:59.379Z,4.08
2023-02-14T01:50:59.796Z,4.11
2023-02-14T01:51:59.304Z,4.11
2023-02-14T01:52:59.271Z,4.05
2023-02-14T01:53:59.256Z,4.00
2023-02-14T01:54:59.221Z,4.08
2023-02-14T01:55:59.200Z,4.04
2023-02-14T01:56:59.183Z,4.02
2023-02-14T01:57:59.141Z,4.02
2023-02-14T01:58:59.116Z,4.02
2023-02-14T01:59:59.086Z,4.06
2023-02-14T02:00:59.635Z,4.05
2023-02-14T02:01:59.091Z,4.02
2023-02-14T02:02:59.006Z,4.04
2023-02-14T02:03:59.002Z,4.02
2023-02-14T02:04:58.956Z,4.08
2023-02-14T02:05:58.931Z,4.04
2023-02-14T02:06:58.893Z,4.11
2023-02-14T02:07:58.920Z,4.05
2023-02-14T02:08:58.839Z,3.94
2023-02-14T02:09:58.821Z,3.88
2023-02-14T02:10:59.197Z,3.75
2023-02-14T02:11:58.760Z,3.79
2023-02-14T02:12:58.729Z,3.78
2023-02-14T02:13:58.704Z,3.79
2023-02-14T02:14:58.677Z,3.73
2023-02-14T02:15:58.658Z,3.66
2023-02-14T02:16:58.742Z,3.69
2023-02-14T02:17:58.600Z,3.70
2023-02-14T02:18:58.562Z,3.55
2023-02-14T02:19:58.574Z,3.47
2023-02-14T02:20:58.848Z,3.51
2023-02-14T02:21:58.487Z,3.50
2023-02-14T02:22:58.453Z,3.52
2023-02-14T02:23:58.428Z,3.58
2023-02-14T02:24:58.398Z,3.52
2023-02-14T02:25:58.380Z,3.55
2023-02-14T02:26:58.345Z,3.66
2023-02-14T02:27:58.326Z,3.68
2023-02-14T02:28:58.297Z,3.68
2023-02-14T02:29:58.315Z,3.69
2023-02-14T02:30:58.657Z,3.70
2023-02-14T02:31:58.310Z,3.70
2023-02-14T02:32:58.186Z,3.73
2023-02-14T02:33:58.158Z,3.68
2023-02-14T02:34:58.136Z,3.68
2023-02-14T02:35:58.122Z,3.61
2023-02-14T02:36:58.070Z,3.62
2023-02-14T02:37:58.045Z,3.58
2023-02-14T02:38:58.015Z,3.57
2023-02-14T02:39:57.990Z,3.54
2023-02-14T02:40:58.355Z,3.52
2023-02-14T02:41:57.937Z,3.68
2023-02-14T02:42:57.905Z,3.60
2023-02-14T02:43:57.892Z,3.72
2023-02-14T02:44:57.855Z,3.69
2023-02-14T02:45:57.856Z,3.79
2023-02-14T02:46:57.805Z,3.83
2023-02-14T02:47:57.771Z,3.88
2023-02-14T02:48:57.738Z,3.84
2023-02-14T02:49:57.719Z,3.88
2023-02-14T02:50:58.052Z,3.87
2023-02-14T02:51:57.691Z,3.91
2023-02-14T02:52:57.629Z,3.90
2023-02-14T02:53:57.605Z,3.88
2023-02-14T02:54:57.586Z,3.84
2023-02-14T02:55:57.552Z,3.75
2023-02-14T02:56:57.524Z,3.78
2023-02-14T02:57:57.498Z,3.76
2023-02-14T02:58:57.464Z,3.73
2023-02-14T02:59:57.447Z,3.70
2023-02-14T03:00:57.807Z,3.61
2023-02-14T03:01:57.393Z,3.60
2023-02-14T03:02:57.356Z,3.60
2023-02-14T03:03:57.327Z,3.54
2023-02-14T03:04:57.359Z,3.66
2023-02-14T03:05:57.273Z,3.69
2023-02-14T03:06:57.249Z,3.66
2023-02-14T03:07:57.247Z,3.66
2023-02-14T03:08:57.188Z,3.69
2023-02-14T03:09:57.164Z,3.73
2023-02-14T03:10:57.363Z,3.70
2023-02-14T03:11:57.116Z,3.70
2023-02-14T03:12:57.082Z,3.70
2023-02-14T03:13:57.054Z,3.76
2023-02-14T03:14:57.034Z,3.78
2023-02-14T03:15:57.013Z,3.76
2023-02-14T03:16:56.973Z,3.83
2023-02-14T03:17:56.952Z,3.83
2023-02-14T03:18:56.913Z,3.78
2023-02-14T03:19:56.896Z,3.78
2023-02-14T03:20:56.913Z,3.75
2023-02-14T03:21:56.840Z,3.68
2023-02-14T03:22:56.806Z,3.55
2023-02-14T03:23:56.802Z,3.52
2023-02-14T03:24:56.755Z,3.50
2023-02-14T03:25:56.728Z,3.43
2023-02-14T03:26:56.696Z,3.45
2023-02-14T03:27:56.674Z,3.42
2023-02-14T03:28:56.643Z,3.47
2023-02-14T03:29:56.686Z,3.47
2023-02-14T03:30:56.900Z,3.40
2023-02-14T03:31:56.740Z,3.52
2023-02-14T03:32:56.534Z,3.47
2023-02-14T03:33:56.506Z,3.47
2023-02-14T03:34:56.473Z,3.50
2023-02-14T03:35:56.445Z,3.48
2023-02-14T03:36:56.421Z,3.52
2023-02-14T03:37:56.399Z,3.45
2023-02-14T03:38:56.382Z,3.40
2023-02-14T03:39:56.375Z,3.51
2023-02-14T03:40:56.314Z,3.50
2023-02-14T03:41:56.286Z,3.43
2023-02-14T03:42:56.271Z,3.35
2023-02-14T03:43:56.238Z,3.26
2023-02-14T03:44:56.306Z,3.29
2023-02-14T03:45:56.208Z,3.17
2023-02-14T03:46:56.149Z,3.21
2023-02-14T03:47:56.116Z,3.18
2023-02-14T03:48:56.087Z,3.21
2023-02-14T03:49:56.064Z,3.23
2023-02-14T03:50:56.037Z,3.20
2023-02-14T03:51:56.014Z,3.26
2023-02-14T03:52:55.980Z,3.23
2023-02-14T03:53:55.952Z,3.18
2023-02-14T03:54:55.923Z,3.17
2023-02-14T03:55:55.924Z,3.28
2023-02-14T03:56:55.869Z,3.21
2023-02-14T03:57:55.842Z,3.20
2023-02-14T03:58:55.814Z,3.23
2023-02-14T03:59:55.804Z,3.21
2023-02-14T04:00:55.767Z,3.18
2023-02-14T04:01:55.768Z,3.17
2023-02-14T04:02:55.711Z,3.21
2023-02-14T04:03:55.757Z,3.11
2023-02-14T04:04:55.646Z,3.08
2023-02-14T04:05:55.618Z,3.20
2023-02-14T04:06:55.589Z,3.20
2023-02-14T04:07:55.562Z,3.20
2023-02-14T04:08:55.535Z,3.24
2023-02-14T04:09:55.511Z,3.23
2023-02-14T04:10:55.485Z,3.28
2023-02-14T04:11:55.478Z,3.28
2023-02-14T04:12:55.425Z,3.23
2023-02-14T04:13:55.401Z,3.33
2023-02-14T04:14:55.366Z,3.29
2023-02-14T04:15:55.391Z,3.31
2023-02-14T04:16:55.311Z,3.33
2023-02-14T04:17:55.289Z,3.28
2023-02-14T04:18:55.265Z,3.24
2023-02-14T04:19:55.228Z,3.31
2023-02-14T04:20:55.197Z,3.32
2023-02-14T04:21:55.183Z,3.26
2023-02-14T04:22:55.145Z,3.29
2023-02-14T04:23:55.123Z,3.26
2023-02-14T04:24:55.093Z,3.21
2023-02-14T04:25:55.074Z,3.18
2023-02-14T04:26:55.033Z,3.23
2023-02-14T04:27:55.078Z,3.29
2023-02-14T04:28:54.976Z,3.28
2023-02-14T04:29:55.020Z,3.31
2023-02-14T04:30:54.949Z,3.28
2023-02-14T04:31:55.007Z,3.18
2023-02-14T04:32:54.865Z,2.97
2023-02-14T04:33:54.845Z,2.67
2023-02-14T04:34:54.812Z,2.48
2023-02-14T04:35:54.780Z,2.48
2023-02-14T04:36:54.757Z,2.34
2023-02-14T04:37:54.751Z,2.31
2023-02-14T04:38:54.703Z,2.17
2023-02-14T04:39:54.671Z,2.14
2023-02-14T04:40:54.650Z,2.23
2023-02-14T04:41:54.612Z,2.17
2023-02-14T04:42:54.594Z,2.12
2023-02-14T04:43:54.586Z,2.17
2023-02-14T04:44:54.536Z,2.17
2023-02-14T04:45:54.505Z,2.23
2023-02-14T04:46:54.604Z,2.23
2023-02-14T04:47:54.445Z,2.21
2023-02-14T04:48:54.423Z,2.30
2023-02-14T04:49:54.398Z,2.21
2023-02-14T04:50:54.375Z,2.23
2023-02-14T04:51:54.332Z,2.30
2023-02-14T04:52:54.317Z,2.36
2023-02-14T04:53:54.282Z,2.30
2023-02-14T04:54:54.260Z,2.43
2023-02-14T04:55:54.236Z,2.43
2023-02-14T04:56:54.208Z,2.48
2023-02-14T04:57:54.171Z,2.45
2023-02-14T04:58:54.146Z,2.43
2023-02-14T04:59:54.135Z,2.45
2023-02-14T05:00:54.126Z,2.49
2023-02-14T05:01:54.110Z,2.56
2023-02-14T05:02:54.028Z,2.59
2023-02-14T05:03:54.003Z,2.60
2023-02-14T05:04:53.979Z,2.61
2023-02-14T05:05:53.947Z,2.56
2023-02-14T05:06:53.922Z,2.46
2023-02-14T05:07:53.884Z,2.48
2023-02-14T05:08:53.865Z,2.53
2023-02-14T05:09:53.831Z,2.46
2023-02-14T05:10:53.852Z,2.49
2023-02-14T05:11:53.771Z,2.45
2023-02-14T05:12:53.745Z,2.35
2023-02-14T05:13:53.718Z,2.31
2023-02-14T05:14:53.695Z,2.23
2023-02-14T05:15:53.712Z,2.21
2023-02-14T05:16:53.654Z,2.20
2023-02-14T05:17:53.604Z,2.12
2023-02-14T05:18:53.585Z,2.12
2023-02-14T05:19:53.550Z,2.14
2023-02-14T05:20:53.523Z,2.00
2023-02-14T05:21:53.495Z,2.00
2023-02-14T05:22:53.471Z,2.06
2023-02-14T05:23:53.439Z,2.00
2023-02-14T05:24:53.418Z,1.98
2023-02-14T05:25:53.386Z,1.98
2023-02-14T05:26:53.357Z,2.03
2023-02-14T05:27:53.328Z,1.95
2023-02-14T05:28:53.302Z,1.98
2023-02-14T05:29:53.351Z,1.90
2023-02-14T05:30:53.306Z,1.93
2023-02-14T05:31:53.271Z,2.03
2023-02-14T05:32:53.189Z,2.03
2023-02-14T05:33:53.156Z,2.09
2023-02-14T05:34:53.127Z,2.16
2023-02-14T05:35:53.096Z,2.16
2023-02-14T05:36:53.082Z,2.17
2023-02-14T05:37:53.048Z,2.23
2023-02-14T05:38:53.018Z,2.21
2023-02-14T05:39:52.983Z,2.24
2023-02-14T05:40:52.978Z,2.28
2023-02-14T05:41:52.931Z,2.30
2023-02-14T05:42:52.908Z,2.23
2023-02-14T05:43:52.874Z,2.25
2023-02-14T05:44:52.851Z,2.25
2023-02-14T05:45:52.862Z,2.20
2023-02-14T05:46:52.818Z,2.06
2023-02-14T05:47:52.791Z,1.99
2023-02-14T05:48:52.746Z,2.00
2023-02-14T05:49:52.708Z,1.98
2023-02-14T05:50:52.686Z,1.93
2023-02-14T05:51:52.651Z,1.87
2023-02-14T05:52:52.633Z,1.98
2023-02-14T05:53:52.598Z,1.98
2023-02-14T05:54:52.570Z,2.03
2023-02-14T05:55:52.538Z,2.10
2023-02-14T05:56:52.514Z,2.17
2023-02-14T05:57:52.480Z,2.10
2023-02-14T05:58:52.456Z,2.09
2023-02-14T05:59:52.426Z,2.20
2023-02-14T06:00:52.403Z,2.25
2023-02-14T06:01:52.396Z,2.27
2023-02-14T06:02:52.364Z,2.16
2023-02-14T06:03:52.487Z,2.14
2023-02-14T06:04:52.472Z,2.06
2023-02-14T06:05:52.278Z,2.10
2023-02-14T06:06:52.246Z,2.10
2023-02-14T06:07:52.208Z,2.10
2023-02-14T06:08:52.186Z,2.10
2023-02-14T06:09:52.146Z,2.06
2023-02-14T06:10:52.126Z,2.09
2023-02-14T06:11:54.346Z,2.14
2023-02-14T06:12:52.071Z,2.18
2023-02-14T06:13:52.041Z,2.12
2023-02-14T06:14:52.011Z,2.16
2023-02-14T06:15:51.982Z,2.17
2023-02-14T06:16:51.988Z,2.21
2023-02-14T06:17:51.930Z,2.24
2023-02-14T06:18:51.917Z,2.27
2023-02-14T06:19:51.896Z,2.18
2023-02-14T06:20:51.848Z,2.24
2023-02-14T06:21:51.820Z,2.21
2023-02-14T06:22:51.847Z,2.09
2023-02-14T06:23:51.756Z,2.10
2023-02-14T06:24:51.741Z,2.02
2023-02-14T06:25:51.708Z,1.98
2023-02-14T06:26:51.675Z,1.98
2023-02-14T06:27:51.650Z,1.81
2023-02-14T06:28:51.617Z,1.84
2023-02-14T06:29:51.613Z,1.80
2023-02-14T06:30:51.658Z,1.80
2023-02-14T06:31:51.639Z,1.86
2023-02-14T06:32:51.507Z,1.86
2023-02-14T06:33:51.474Z,1.83
2023-02-14T06:34:51.446Z,1.95
2023-02-14T06:35:51.460Z,1.87
2023-02-14T06:36:51.398Z,2.07
2023-02-14T06:37:51.382Z,1.99
2023-02-14T06:38:51.341Z,2.10
2023-02-14T06:39:51.303Z,2.14
2023-02-14T06:40:51.284Z,2.17
2023-02-14T06:41:51.250Z,2.25
2023-02-14T06:42:51.228Z,2.25
2023-02-14T06:43:51.192Z,2.36
2023-02-14T06:44:51.167Z,2.27
2023-02-14T06:45:51.221Z,2.43
2023-02-14T06:46:51.110Z,2.39
2023-02-14T06:47:51.089Z,2.34
2023-02-14T06:48:51.060Z,2.36
2023-02-14T06:49:51.025Z,2.31
2023-02-14T06:50:51.004Z,2.38
2023-02-14T06:51:50.986Z,2.35
2023-02-14T06:52:50.941Z,2.35
2023-02-14T06:53:50.924Z,2.25
2023-02-14T06:54:50.891Z,2.36
2023-02-14T06:55:50.859Z,2.30
2023-02-14T06:56:50.830Z,2.24
2023-02-14T06:57:50.801Z,2.27
2023-02-14T06:58:50.785Z,2.30
2023-02-14T06:59:50.742Z,2.31
2023-02-14T07:00:50.719Z,2.34
2023-02-14T07:01:50.744Z,2.38
2023-02-14T07:02:50.755Z,2.42
2023-02-14T07:03:50.627Z,2.52
2023-02-14T07:04:50.607Z,2.48
2023-02-14T07:05:50.574Z,2.42
2023-02-14T07:06:50.560Z,2.60
2023-02-14T07:07:50.571Z,2.53
2023-02-14T07:08:50.505Z,2.66
2023-02-14T07:09:50.459Z,2.72
2023-02-14T07:10:50.434Z,2.63
2023-02-14T07:11:50.403Z,2.67
2023-02-14T07:12:50.382Z,2.69
2023-02-14T07:13:50.345Z,2.69
2023-02-14T07:14:50.328Z,2.69
2023-02-14T07:15:50.322Z,2.69
2023-02-14T07:16:50.268Z,2.69
2023-02-14T07:17:50.241Z,2.72
2023-02-14T07:18:50.216Z,2.79
2023-02-14T07:19:50.189Z,2.82
2023-02-14T07:20:50.178Z,2.72
2023-02-14T07:21:50.121Z,2.78
2023-02-14T07:22:50.098Z,2.77
2023-02-14T07:23:50.154Z,2.67
2023-02-14T07:24:50.048Z,2.67
2023-02-14T07:25:50.010Z,2.60
2023-02-14T07:26:49.987Z,2.59
2023-02-14T07:27:49.955Z,2.60
2023-02-14T07:28:49.932Z,2.46
2023-02-14T07:29:49.944Z,2.52
2023-02-14T07:30:50.027Z,2.45
2023-02-14T07:31:50.035Z,2.43
2023-02-14T07:32:49.814Z,2.60
2023-02-14T07:33:49.792Z,2.57
2023-02-14T07:34:49.762Z,2.67
2023-02-14T07:35:49.727Z,2.66
2023-02-14T07:36:49.714Z,2.67
2023-02-14T07:37:49.673Z,2.69
2023-02-14T07:38:49.650Z,2.77
2023-02-14T07:39:49.641Z,2.78
2023-02-14T07:40:49.587Z,2.74
2023-02-14T07:41:49.561Z,2.87
2023-02-14T07:42:49.535Z,2.84
2023-02-14T07:43:49.510Z,2.96
2023-02-14T07:44:49.481Z,2.90
2023-02-14T07:45:49.451Z,2.93
2023-02-14T07:46:49.424Z,2.99
2023-02-14T07:47:49.400Z,3.08
2023-02-14T07:48:49.366Z,3.11
2023-02-14T07:49:49.342Z,3.11
2023-02-14T07:50:49.312Z,3.18
2023-02-14T07:51:49.301Z,3.21
2023-02-14T07:52:49.333Z,3.18
2023-02-14T07:53:49.220Z,3.29
2023-02-14T07:54:49.202Z,3.21
2023-02-14T07:55:49.207Z,3.17
2023-02-14T07:56:49.145Z,3.29
2023-02-14T07:57:49.123Z,3.24
2023-02-14T07:58:49.088Z,3.28
2023-02-14T07:59:49.053Z,3.24
2023-02-14T08:00:49.041Z,3.29
2023-02-14T08:01:49.078Z,3.18
2023-02-14T08:02:48.983Z,3.32
2023-02-14T08:03:48.947Z,3.32
2023-02-14T08:04:48.966Z,3.33
2023-02-14T08:05:48.890Z,3.32
2023-02-14T08:06:48.866Z,3.47
2023-02-14T08:07:48.886Z,3.52
2023-02-14T08:08:48.810Z,3.52
2023-02-14T08:09:48.780Z,3.48
2023-02-14T08:10:48.753Z,3.45
2023-02-14T08:11:48.785Z,3.50
2023-02-14T08:12:48.700Z,3.47
2023-02-14T08:13:48.676Z,3.55
2023-02-14T08:14:48.651Z,3.54
2023-02-14T08:15:48.707Z,3.57
2023-02-14T08:16:48.584Z,3.66
2023-02-14T08:17:48.553Z,3.55
2023-02-14T08:18:48.528Z,3.62
2023-02-14T08:19:48.500Z,3.72
2023-02-14T08:20:48.467Z,3.72
2023-02-14T08:21:48.450Z,3.76
2023-02-14T08:22:48.413Z,3.76
2023-02-14T08:23:48.383Z,3.91
2023-02-14T08:24:48.354Z,3.88
2023-02-14T08:25:48.325Z,3.91
2023-02-14T08:26:48.324Z,3.98
2023-02-14T08:27:48.296Z,3.91
2023-02-14T08:28:48.248Z,4.00
2023-02-14T08:29:48.271Z,3.93
2023-02-14T08:30:48.201Z,4.04
2023-02-14T08:31:48.263Z,4.04
2023-02-14T08:32:48.181Z,4.08
2023-02-14T08:33:48.107Z,4.05
2023-02-14T08:34:48.079Z,4.09
2023-02-14T08:35:48.045Z,4.08
2023-02-14T08:36:48.022Z,4.20
2023-02-14T08:37:47.990Z,4.18
2023-02-14T08:38:47.970Z,4.24
2023-02-14T08:39:47.932Z,4.29
2023-02-14T08:40:47.929Z,4.22
2023-02-14T08:41:47.879Z,4.29
2023-02-14T08:42:47.878Z,4.29
2023-02-14T08:43:47.845Z,4.27
2023-02-14T08:44:47.819Z,4.29
2023-02-14T08:45:47.769Z,4.33
2023-02-14T08:46:47.804Z,4.40
2023-02-14T08:47:47.729Z,4.50
2023-02-14T08:48:47.719Z,4.36
2023-02-14T08:49:47.666Z,4.37
2023-02-14T08:50:47.638Z,4.40
2023-02-14T08:51:47.657Z,4.44
2023-02-14T08:52:47.586Z,4.44
2023-02-14T08:53:47.567Z,4.52
2023-02-14T08:54:47.537Z,4.59
2023-02-14T08:55:47.506Z,4.66
2023-02-14T08:56:47.470Z,4.60
2023-02-14T08:57:47.472Z,4.69
2023-02-14T08:58:47.433Z,4.62
2023-02-14T08:59:47.422Z,4.72
2023-02-14T09:00:47.401Z,4.80
2023-02-14T09:01:47.347Z,4.89
2023-02-14T09:02:47.314Z,4.89
2023-02-14T09:03:47.349Z,4.94
2023-02-14T09:04:47.255Z,5.00
2023-02-14T09:05:47.221Z,5.02
2023-02-14T09:06:47.194Z,5.06
2023-02-14T09:07:47.178Z,5.15
2023-02-14T09:08:47.145Z,5.17
2023-02-14T09:09:47.117Z,5.10
2023-02-14T09:10:47.149Z,5.24
2023-02-14T09:11:47.056Z,5.25
2023-02-14T09:12:47.037Z,5.33
2023-02-14T09:13:47.032Z,5.28
2023-02-14T09:14:46.981Z,5.38
2023-02-14T09:15:46.977Z,5.33
2023-02-14T09:16:47.035Z,5.39
2023-02-14T09:17:46.973Z,5.42
2023-02-14T09:18:46.910Z,5.39
2023-02-14T09:19:46.913Z,5.51
2023-02-14T09:20:46.816Z,5.51
2023-02-14T09:21:46.782Z,5.54
2023-02-14T09:22:48.752Z,5.57
2023-02-14T09:23:46.735Z,5.63
2023-02-14T09:24:46.703Z,5.60
2023-02-14T09:25:46.676Z,5.61
2023-02-14T09:26:46.660Z,5.65
2023-02-14T09:27:46.629Z,5.67
2023-02-14T09:28:46.591Z,5.76
2023-02-14T09:29:46.578Z,5.79
2023-02-14T09:30:46.537Z,5.74
2023-02-14T09:31:46.725Z,5.86
2023-02-14T09:32:46.489Z,5.83
2023-02-14T09:33:46.465Z,5.83
2023-02-14T09:34:46.432Z,5.90
2023-02-14T09:35:46.411Z,5.97
2023-02-14T09:36:46.379Z,5.91
2023-02-14T09:37:46.354Z,5.93
2023-02-14T09:38:46.331Z,6.04
2023-02-14T09:39:46.301Z,5.99
2023-02-14T09:40:46.279Z,6.01
2023-02-14T09:41:46.265Z,6.03
2023-02-14T09:42:46.222Z,6.08
2023-02-14T09:43:46.200Z,6.19
2023-02-14T09:44:46.156Z,6.18
2023-02-14T09:45:46.172Z,6.17
2023-02-14T09:46:46.113Z,6.28
2023-02-14T09:47:46.113Z,6.18
2023-02-14T09:48:46.131Z,6.37
2023-02-14T09:49:46.177Z,6.30
2023-02-14T09:50:46.000Z,6.37
2023-02-14T09:51:45.976Z,6.36
2023-02-14T09:52:45.945Z,6.36
2023-02-14T09:53:45.927Z,6.43
2023-02-14T09:54:45.898Z,6.43
2023-02-14T09:55:45.875Z,6.43
2023-02-14T09:56:51.343Z,6.46
2023-02-14T09:57:45.816Z,6.48
2023-02-14T09:58:45.795Z,6.64
2023-02-14T09:59:45.760Z,6.66
2023-02-14T10:00:45.770Z,6.73
2023-02-14T10:01:45.709Z,6.76
2023-02-14T10:02:45.678Z,6.80
2023-02-14T10:03:45.676Z,6.77
2023-02-14T10:04:45.621Z,6.76
2023-02-14T10:05:45.605Z,6.84
2023-02-14T10:06:45.571Z,6.80
2023-02-14T10:07:45.550Z,6.79
2023-02-14T10:08:45.514Z,6.85
2023-02-14T10:09:45.505Z,6.92
2023-02-14T10:10:45.466Z,6.91
2023-02-14T10:11:45.450Z,6.91
2023-02-14T10:12:45.412Z,6.89
2023-02-14T10:13:45.389Z,7.03
2023-02-14T10:14:45.357Z,6.89
2023-02-14T10:15:45.333Z,7.03
2023-02-14T10:16:45.420Z,7.07
2023-02-14T10:17:45.274Z,7.09
2023-02-14T10:18:45.255Z,7.20
2023-02-14T10:19:45.252Z,7.12
2023-02-14T10:20:45.204Z,7.25
2023-02-14T10:21:47.866Z,7.27
2023-02-14T10:22:45.154Z,7.25
2023-02-14T10:23:45.118Z,7.34
2023-02-14T10:24:45.099Z,7.35
2023-02-14T10:25:45.082Z,7.30
2023-02-14T10:26:45.041Z,7.34
2023-02-14T10:27:45.037Z,7.43
2023-02-14T10:28:44.989Z,7.42
2023-02-14T10:29:44.961Z,7.46
2023-02-14T10:30:45.059Z,7.55
2023-02-14T10:31:45.021Z,7.60
2023-02-14T10:32:44.879Z,7.71
2023-02-14T10:33:44.858Z,7.67
2023-02-14T10:34:44.829Z,7.71
2023-02-14T10:35:44.805Z,7.74
2023-02-14T10:36:44.772Z,7.74
2023-02-14T10:37:44.751Z,7.69
2023-02-14T10:38:44.726Z,7.79
2023-02-14T10:39:44.703Z,7.80
2023-02-14T10:40:44.679Z,7.83
2023-02-14T10:41:44.643Z,7.93
2023-02-14T10:42:44.617Z,7.97
2023-02-14T10:43:44.613Z,7.98
2023-02-14T10:44:44.571Z,8.00
2023-02-14T10:45:44.589Z,8.00
2023-02-14T10:46:44.511Z,8.10
2023-02-14T10:47:44.484Z,8.12
2023-02-14T10:48:44.458Z,8.05
2023-02-14T10:49:44.451Z,8.16
2023-02-14T10:50:44.417Z,8.11
2023-02-14T10:51:44.386Z,8.16
2023-02-14T10:52:44.354Z,8.16
2023-02-14T10:53:44.356Z,8.19
2023-02-14T10:54:44.297Z,8.25
2023-02-14T10:55:44.274Z,8.19
2023-02-14T10:56:44.250Z,8.33
2023-02-14T10:57:44.229Z,8.30
2023-02-14T10:58:44.198Z,8.40
2023-02-14T10:59:44.189Z,8.48
2023-02-14T11:00:44.145Z,8.56
2023-02-14T11:01:44.190Z,8.58
2023-02-14T11:02:44.099Z,8.65
2023-02-14T11:03:44.335Z,8.63
2023-02-14T11:04:44.052Z,8.76
2023-02-14T11:05:46.487Z,8.76
2023-02-14T11:06:43.985Z,8.71
2023-02-14T11:07:43.968Z,8.80
2023-02-14T11:08:43.940Z,8.86
2023-02-14T11:09:43.922Z,8.89
2023-02-14T11:10:43.885Z,8.84
2023-02-14T11:11:43.870Z,8.86
2023-02-14T11:12:43.833Z,8.91
2023-02-14T11:13:43.810Z,8.91
2023-02-14T11:14:43.778Z,9.01
2023-02-14T11:15:43.789Z,9.01
2023-02-14T11:16:43.748Z,9.11
2023-02-14T11:17:43.738Z,9.08
2023-02-14T11:18:43.683Z,9.13
2023-02-14T11:19:43.654Z,9.26
2023-02-14T11:20:43.622Z,9.32
2023-02-14T11:21:43.600Z,9.35
2023-02-14T11:22:43.589Z,9.43
2023-02-14T11:23:43.547Z,9.50
2023-02-14T11:24:43.525Z,9.57
2023-02-14T11:25:43.500Z,9.51
2023-02-14T11:26:43.474Z,9.61
2023-02-14T11:27:43.446Z,9.54
2023-02-14T11:28:43.421Z,9.69
2023-02-14T11:29:43.411Z,9.71
2023-02-14T11:30:43.428Z,9.76
2023-02-14T11:31:43.508Z,9.84
2023-02-14T11:32:43.326Z,9.84
2023-02-14T11:33:43.317Z,9.83
2023-02-14T11:34:43.259Z,9.86
2023-02-14T11:35:43.245Z,9.83
2023-02-14T11:36:43.211Z,9.71
2023-02-14T11:37:43.185Z,9.84
2023-02-14T11:38:43.161Z,9.72
2023-02-14T11:39:43.135Z,9.69
2023-02-14T11:40:43.107Z,9.65
2023-02-14T11:41:43.095Z,9.53
2023-02-14T11:42:43.070Z,9.60
2023-02-14T11:43:43.037Z,9.57
2023-02-14T11:44:43.012Z,9.66
2023-02-14T11:45:43.104Z,9.69
2023-02-14T11:46:52.821Z,9.71
2023-02-14T11:47:42.969Z,9.75
2023-02-14T11:48:42.915Z,9.71
2023-02-14T11:49:42.880Z,9.69
2023-02-14T11:50:42.851Z,9.68
2023-02-14T11:51:42.848Z,9.69
2023-02-14T11:52:42.805Z,9.79
2023-02-14T11:53:42.776Z,9.69
2023-02-14T11:54:42.758Z,9.74
2023-02-14T11:55:42.744Z,9.76
2023-02-14T11:56:42.703Z,9.71
2023-02-14T11:57:42.684Z,9.75
2023-02-14T11:58:42.666Z,9.75
2023-02-14T11:59:42.630Z,9.83
2023-02-14T12:00:42.608Z,9.93
2023-02-14T12:01:42.583Z,9.93
2023-02-14T12:02:42.583Z,9.94
2023-02-14T12:03:42.686Z,9.93
2023-02-14T12:04:46.567Z,9.90
2023-02-14T12:05:42.477Z,9.94
2023-02-14T12:06:42.450Z,9.86
2023-02-14T12:07:42.427Z,9.96
2023-02-14T12:08:42.399Z,9.93
2023-02-14T12:09:42.372Z,10.01
2023-02-14T12:10:42.368Z,10.12
2023-02-14T12:11:42.323Z,10.07
2023-02-14T12:12:42.301Z,10.15
2023-02-14T12:13:42.279Z,10.15
2023-02-14T12:14:42.251Z,10.14
2023-02-14T12:15:42.259Z,10.25
2023-02-14T12:16:42.195Z,10.29
2023-02-14T12:17:42.174Z,10.34
2023-02-14T12:18:42.152Z,10.42
2023-02-14T12:19:42.181Z,10.34
2023-02-14T12:20:42.095Z,10.36
2023-02-14T12:21:42.074Z,10.36
2023-02-14T12:22:42.048Z,10.42
2023-02-14T12:23:42.074Z,10.38
2023-02-14T12:24:41.994Z,10.38
2023-02-14T12:25:41.971Z,10.36
2023-02-14T12:26:41.945Z,10.45
2023-02-14T12:27:41.921Z,10.47
2023-02-14T12:28:41.888Z,10.61
2023-02-14T12:29:41.870Z,10.67
2023-02-14T12:30:41.840Z,10.63
2023-02-14T12:31:41.876Z,10.76
2023-02-14T12:32:41.824Z,10.68
2023-02-14T12:33:41.811Z,10.67
2023-02-14T12:34:41.738Z,10.73
2023-02-14T12:35:41.733Z,10.84
2023-02-14T12:36:41.686Z,10.78
2023-02-14T12:37:41.663Z,10.84
2023-02-14T12:38:41.655Z,10.82
2023-02-14T12:39:41.618Z,10.79
2023-02-14T12:40:41.584Z,10.78
2023-02-14T12:41:41.561Z,10.73
2023-02-14T12:42:41.539Z,10.73
2023-02-14T12:43:41.517Z,10.76
2023-02-14T12:44:41.497Z,10.79
2023-02-14T12:45:41.468Z,10.68
2023-02-14T12:46:41.438Z,10.68
2023-02-14T12:47:41.413Z,10.67
2023-02-14T12:48:41.387Z,10.76
2023-02-14T12:49:41.364Z,10.81
2023-02-14T12:50:41.334Z,10.71
2023-02-14T12:51:41.331Z,10.76
2023-02-14T12:52:41.291Z,10.76
2023-02-14T12:53:41.278Z,10.66
2023-02-14T12:54:41.246Z,10.70
2023-02-14T12:55:41.216Z,10.73
2023-02-14T12:56:41.189Z,10.60
2023-02-14T12:57:41.167Z,10.73
2023-02-14T12:58:41.137Z,10.73
2023-02-14T12:59:41.122Z,10.84
2023-02-14T13:00:41.091Z,10.88
2023-02-14T13:01:41.138Z,10.85
2023-02-14T13:02:41.194Z,10.94
2023-02-14T13:03:41.017Z,10.91
2023-02-14T13:04:41.150Z,10.84
2023-02-14T13:05:40.971Z,10.88
2023-02-14T13:06:40.941Z,10.97
2023-02-14T13:07:40.936Z,10.92
2023-02-14T13:08:40.893Z,10.96
2023-02-14T13:09:40.860Z,10.97
2023-02-14T13:10:40.848Z,10.96
2023-02-14T13:11:40.827Z,10.99
2023-02-14T13:12:40.797Z,11.10
2023-02-14T13:13:40.764Z,11.10
2023-02-14T13:14:40.755Z,11.10
2023-02-14T13:15:40.717Z,11.07